Accueil
METAR-TAF:

METAR-TAF

Aéroports :

Alpnach, Suisse

latitude: 46-56-19N, longitude: 8-17-03E, altitude: 440 m

Observation

Le bulletin a été fait il y a 31 minutes, à 09:50 UTC
Vent 2 kt de direction variable
Température 1°C
Humidité 93%
Pression 1015 hPa
Visibilité: 1100 m
Ciel couvert à une hauteur de 300 ft
neige

METAR: LSMA 280950Z VRB02KT 1100 R01/0800V1500U R19/0800V1300U SN OVC003 01/00 Q1015 RMK AMB

Heure: 12:21 (10:21 UTC)


TAF: absent

Observations et prévisions météorologiques de plus de 4000 aéroports (messages METAR et TAF).

Les stations disponibles sont représentées par des disques jaunes et rouges sur la carte.

Passer la souris dessus pour voir le nom de la station.

Cliquer dessus pour voir les observations et prévisions météorologiques.

Pour changer de carte: cliquez sur les boutons verts avec une croix noire pour zoomer, sur le bouton vert avec un tiret pour effectuer un zoom arrière, ou sur les flèches vertes pour les cartes adjacentes.


METAR-TAF: